Athens, Arkansas
Current Conditions -  °F | °C
As of 11:55 PM on Thursday 30 Oct 2014 (Local Time) from KMEZ Reporting Station
Clear Clear  
Wind Chill: 55°   Ceiling: Unl
Heat Index: 55°   Visibility: 10mi
Dew Point: 43°   Wind: 0mph
Humidity: 63%   Direction: NA
Pressure: 30.12"   Gusts: NA
Location:  34.2871°N, 94.1174°W
Report Text: KMEZ 310455Z AUTO 00000KT 10SM CLR 13/06 A3012 RMK AO2
Loading
Personal Weather Stations






























Interactive Weather Map New forecast layout! Learn more

10-Day Weather Forecast

Advertisements
Track Severe Weather on mobile